Home > Products > Valid Products > TAF

000
FTUS41 KPHI 212300
TAFABE
TAF
KABE 212338Z 2200/2224 36003KT P6SM OVC040
      TEMPO 2200/2204 5SM -SHRA
     FM220600 03007KT 6SM -RA BKN020
     FM221000 03009KT 4SM -RA BR SCT008 OVC012
     FM221500 03012G20KT 5SM -RA BR BKN020
     FM222100 36014KT P6SM -SHRA OVC025=



000
FTUS41 KPHI 212300
TAFPHL
TAF
KPHL 212338Z 2200/2306 32006KT P6SM BKN050
     FM220400 03008KT 6SM -RA SCT025 OVC040
     FM220900 03010KT 4SM -RA BR SCT009 OVC015
     FM221600 03012G20KT 4SM RA BKN015
     FM222100 36016G25KT 6SM -RA BKN020
     FM230200 35017KT P6SM OVC025=



000
FTUS41 KPHI 212300
TAFTTN
TAF
KTTN 212338Z 2200/2224 01005KT P6SM BKN050
     FM220600 03008KT 6SM -RA SCT025 OVC040
     FM221100 05010KT 4SM -RA BR SCT007 OVC015
     FM221500 05012G20KT 4SM RA BR OVC012=



000
FTUS41 KPHI 212300
TAFPNE
TAF
KPNE 212338Z 2200/2224 33005KT P6SM BKN050
     FM220600 03008KT 6SM -RA SCT025 OVC040
     FM221100 03010KT 4SM -RA BR SCT007 OVC025
     FM221500 03012G20KT 4SM RA BR OVC012=



000
FTUS41 KPHI 212300
TAFILG
TAF
KILG 212338Z 2200/2224 32006KT P6SM SCT050
     FM220400 02008KT 6SM -RA SCT025 OVC040
     FM220900 02010KT 4SM -RA BR BKN008
     FM221600 02012G20KT 4SM RA BKN015
     FM222300 35019KT P6SM -SHRA OVC025=



000
FTUS41 KPHI 212300
TAFMIV
TAF
KMIV 212338Z 2200/2224 00000KT P6SM BKN050
     FM220700 01005KT 6SM -RA SCT025 OVC040
     FM221100 01007KT 4SM -RA BR BKN008
     FM221500 03010G18KT 4SM RA BR BKN012
     FM221900 36013G20KT 6SM -RA BR OVC025=



000
FTUS41 KPHI 212300
TAFACY
TAF
KACY 212338Z 2200/2224 24005KT P6SM SCT050 BKN100
     FM220300 VRB03KT 6SM BR OVC040
     FM220700 03007KT 6SM -RA SCT025 OVC040
     FM221100 03010KT 4SM -RA BR BKN008
     FM221500 03012G20KT 4SM RA BR BKN012
     FM221800 01016G22KT 6SM -RA BR OVC015=



000
FTUS41 KPHI 212300
TAFRDG
TAF
KRDG 212338Z 2200/2224 35003KT P6SM OVC040
      TEMPO 2201/2205 5SM -SHRA
     FM220600 01007KT 6SM -RA SCT020 OVC035
     FM221000 01009KT 4SM -RA BR SCT008 OVC012
     FM221500 36012G20KT 5SM -RA BR BKN020
     FM222300 34013KT P6SM -SHRA OVC050=



000
FTUS41 KPHI 212300
TAFRDG
TAF
KRDG 212338Z 2200/2224 35003KT P6SM OVC040
      TEMPO 2201/2205 5SM -SHRA
     FM220600 01007KT 6SM -RA SCT020 OVC035
     FM221000 01009KT 4SM -RA BR SCT008 OVC012
     FM221500 36012G20KT 5SM -RA BR BKN020
     FM222300 34013KT P6SM -SHRA OVC050=



000
FTUS41 KPHI 212300
TAFILG
TAF
KILG 212338Z 2200/2224 32006KT P6SM SCT050
     FM220400 02008KT 6SM -RA SCT025 OVC040
     FM220900 02010KT 4SM -RA BR BKN008
     FM221600 02012G20KT 4SM RA BKN015
     FM222300 35019KT P6SM -SHRA OVC025=



000
FTUS41 KPHI 212300
TAFABE
TAF
KABE 212338Z 2200/2224 36003KT P6SM OVC040
      TEMPO 2200/2204 5SM -SHRA
     FM220600 03007KT 6SM -RA BKN020
     FM221000 03009KT 4SM -RA BR SCT008 OVC012
     FM221500 03012G20KT 5SM -RA BR BKN020
     FM222100 36014KT P6SM -SHRA OVC025=



000
FTUS41 KPHI 212300
TAFPHL
TAF
KPHL 212338Z 2200/2306 32006KT P6SM BKN050
     FM220400 03008KT 6SM -RA SCT025 OVC040
     FM220900 03010KT 4SM -RA BR SCT009 OVC015
     FM221600 03012G20KT 4SM RA BKN015
     FM222100 36016G25KT 6SM -RA BKN020
     FM230200 35017KT P6SM OVC025=



000
FTUS41 KPHI 212300
TAFMIV
TAF
KMIV 212338Z 2200/2224 00000KT P6SM BKN050
     FM220700 01005KT 6SM -RA SCT025 OVC040
     FM221100 01007KT 4SM -RA BR BKN008
     FM221500 03010G18KT 4SM RA BR BKN012
     FM221900 36013G20KT 6SM -RA BR OVC025=



000
FTUS41 KPHI 212300
TAFACY
TAF
KACY 212338Z 2200/2224 24005KT P6SM SCT050 BKN100
     FM220300 VRB03KT 6SM BR OVC040
     FM220700 03007KT 6SM -RA SCT025 OVC040
     FM221100 03010KT 4SM -RA BR BKN008
     FM221500 03012G20KT 4SM RA BR BKN012
     FM221800 01016G22KT 6SM -RA BR OVC015=



000
FTUS41 KPHI 212300
TAFPNE
TAF
KPNE 212338Z 2200/2224 33005KT P6SM BKN050
     FM220600 03008KT 6SM -RA SCT025 OVC040
     FM221100 03010KT 4SM -RA BR SCT007 OVC025
     FM221500 03012G20KT 4SM RA BR OVC012=



000
FTUS41 KPHI 212300
TAFTTN
TAF
KTTN 212338Z 2200/2224 01005KT P6SM BKN050
     FM220600 03008KT 6SM -RA SCT025 OVC040
     FM221100 05010KT 4SM -RA BR SCT007 OVC015
     FM221500 05012G20KT 4SM RA BR OVC012=



000
FTUS41 KPHI 212000 AAA
TAFPHL
TAF AMD
KPHL 212059Z 2121/2224 28004KT P6SM FEW035 BKN080
     FM212300 32006KT P6SM BKN050
     FM220400 03008KT 6SM -RA SCT025 OVC040
     FM220900 03010KT 4SM -RA BR SCT009 OVC015
     FM221600 03012G20KT 4SM RA BKN015
     FM222100 36016G25KT 6SM -RA BKN015=



000
FTUS41 KPHI 211700 RRA
TAFTTN
TAF
KTTN 211751Z 2118/2218 26005KT P6SM SCT050 BKN100
     FM212200 36005KT P6SM VCSH BKN050
     FM220600 03008KT 6SM -RA SCT025 OVC040
     FM221100 05010KT 4SM -RA BR SCT007 OVC015
     FM221500 05012G20KT 4SM RA BR OVC012=



000
FTUS41 KPHI 211700 RRA
TAFILG
TAF
KILG 211751Z 2118/2218 27004KT P6SM FEW035 BKN050
     FM212200 32006KT P6SM VCSH BKN050
     FM220400 03008KT 6SM -RA SCT025 OVC040
     FM220900 03010KT 4SM -RA BR BKN008
     FM221600 03012G20KT 4SM RA BKN015=



000
FTUS41 KPHI 211700 RRA
TAFPNE
TAF
KPNE 211751Z 2118/2218 26005KT P6SM SCT050 BKN100
     FM212100 33005KT P6SM VCSH BKN050
     FM220600 03008KT 6SM -RA SCT025 OVC040
     FM221100 03010KT 4SM -RA BR SCT007 OVC025
     FM221500 03012G20KT 4SM RA BR OVC012=



000
FTUS41 KPHI 211700 RRA
TAFPHL
TAF
KPHL 211751Z 2118/2224 24004KT P6SM FEW035 BKN050
     FM212200 32006KT P6SM VCSH BKN050
     FM220400 03008KT 6SM -RA SCT025 OVC040
     FM220900 03010KT 4SM -RA BR SCT009 OVC015
     FM221600 03012G20KT 4SM RA BKN015
     FM222100 36016G25KT 6SM -RA BKN015=



000
FTUS41 KPHI 211700 RRA
TAFACY
TAF
KACY 211751Z 2118/2218 24005KT P6SM SCT050 BKN100
     FM220300 VRB03KT 6SM -SHRA OVC040
     FM220700 03007KT 6SM -RA SCT025 OVC040
     FM221100 03010KT 4SM -RA BR BKN008
     FM221500 03012G20KT 4SM RA BR BKN012=



000
FTUS41 KPHI 211700 RRA
TAFABE
TAF
KABE 211751Z 2118/2218 13003KT P6SM VCSH BKN050
     FM212200 27003KT 6SM -SHRA OVC040
     FM220600 03007KT 6SM -RA SCT020 OVC035
     FM221000 03009KT 4SM -RA BR SCT008 OVC012
     FM221500 03012G20KT 5SM -RA BR BKN020=



000
FTUS41 KPHI 211700 RRA
TAFRDG
TAF
KRDG 211751Z 2118/2218 36003KT P6SM VCSH BKN050
     FM212200 01003KT 6SM -SHRA OVC040
     FM220600 01007KT 6SM -RA SCT020 OVC035
     FM221000 01009KT 4SM -RA BR SCT008 OVC012
     FM221500 36012G20KT 5SM -RA BR BKN020=



000
FTUS41 KPHI 211700 RRA
TAFMIV
TAF
KMIV 211751Z 2118/2218 33005KT P6SM BKN050
     FM220200 VRB03KT 6SM -SHRA OVC040
     FM220700 01005KT 6SM -RA SCT025 OVC040
     FM221100 01007KT 4SM -RA BR BKN008
     FM221500 03010G18KT 4SM RA BR BKN012=



000
FTUS41 KPHI 211400 AAA
TAFPHL
TAF AMD
KPHL 211458Z 2115/2218 24004KT P6SM BKN100
     FM212200 32006KT P6SM VCSH BKN050
     FM220200 01003KT P6SM -SHRA OVC040
     FM220700 03008KT 6SM -RA SCT025 OVC040
     FM221100 03010KT 4SM -RA BR OVC025=



000
FTUS41 KPHI 211100 AAA
TAFRDG
TAF AMD
KRDG 211137Z 2112/2212 20003KT P6SM OVC080
      TEMPO 2112/2113 3SM BR
     FM211500 33005KT P6SM VCSH BKN080
     FM211800 36005KT P6SM -SHRA BKN050
     FM212300 01003KT 6SM -SHRA OVC040
     FM220600 01007KT 6SM -RA SCT020 OVC035
     FM221000 01009KT 4SM -RA BR OVC020=



000
FTUS41 KPHI 211100 AAA
TAFRDG
TAF AMD
KRDG 211137Z 2112/2212 20003KT P6SM OVC080
      TEMPO 2112/2113 3SM BR
     FM211500 33005KT P6SM VCSH BKN080
     FM211800 36005KT P6SM -SHRA BKN050
     FM212300 01003KT 6SM -SHRA OVC040
     FM220600 01007KT 6SM -RA SCT020 OVC035
     FM221000 01009KT 4SM -RA BR OVC020=



000
FTUS41 KPHI 211100
TAFILG
TAF
KILG 211132Z 2112/2212 23006KT P6SM FEW050 BKN150
     FM211600 27006KT P6SM SCT050 BKN100
     FM212100 33006KT P6SM -SHRA BKN050
     FM220300 36004KT 6SM -SHRA OVC040
     FM220700 01008KT 6SM -RA SCT025 OVC040
     FM221100 01010KT 4SM -RA BR OVC025=



000
FTUS41 KPHI 211100
TAFTTN
TAF
KTTN 211132Z 2112/2212 VRB03KT P6SM BKN100
     FM211500 26005KT P6SM SCT050 BKN100
     FM212100 36005KT P6SM -SHRA BKN050
     FM220200 03003KT P6SM VCSH OVC040
     FM220700 03008KT 6SM -RA SCT025 OVC040
     FM221100 05010KT 4SM -RA BR OVC025=



000
FTUS41 KPHI 211100
TAFPNE
TAF
KPNE 211132Z 2112/2212 20003KT P6SM FEW050 BKN150
     FM211600 26005KT P6SM SCT050 BKN100
     FM212100 33005KT P6SM -SHRA BKN050
     FM220200 36003KT P6SM VCSH OVC040
     FM220700 03008KT 6SM -RA SCT025 OVC040
     FM221100 03010KT 4SM -RA BR OVC025=



000
FTUS41 KPHI 211100
TAFRDG
TAF
KRDG 211132Z 2112/2212 20003KT P6SM OVC080
     FM211500 33005KT P6SM VCSH BKN080
     FM211800 36005KT P6SM -SHRA BKN050
     FM212300 01003KT 6SM -SHRA OVC040
     FM220600 01007KT 6SM -RA SCT020 OVC035
     FM221000 01009KT 4SM -RA BR OVC020=



000
FTUS41 KPHI 211100
TAFABE
TAF
KABE 211132Z 2112/2212 03005KT P6SM OVC070
     FM211500 01005KT P6SM VCSH BKN080
     FM211800 01005KT P6SM -SHRA BKN050
     FM212300 03003KT 6SM -SHRA OVC040
     FM220600 03007KT 6SM -RA SCT020 OVC035
     FM221000 03009KT 4SM -RA BR OVC020=



000
FTUS41 KPHI 211100
TAFPHL
TAF
KPHL 211132Z 2112/2218 22003KT P6SM FEW050 BKN150
     FM211600 27006KT P6SM VCSH BKN100
     FM212100 32006KT P6SM -SHRA BKN050
     FM220200 01003KT P6SM VCSH OVC040
     FM220700 03008KT 6SM -RA SCT025 OVC040
     FM221100 03010KT 4SM -RA BR OVC025=



000
FTUS41 KPHI 211100
TAFABE
TAF
KABE 211132Z 2112/2212 03005KT P6SM OVC070
     FM211500 01005KT P6SM VCSH BKN080
     FM211800 01005KT P6SM -SHRA BKN050
     FM212300 03003KT 6SM -SHRA OVC040
     FM220600 03007KT 6SM -RA SCT020 OVC035
     FM221000 03009KT 4SM -RA BR OVC020=



000
FTUS41 KPHI 211100
TAFMIV
TAF
KMIV 211132Z 2112/2212 22003KT P6SM FEW050 BKN150
      TEMPO 2112/2113 6SM BR
     FM211700 27005KT P6SM SCT050 BKN100
     FM212200 33005KT P6SM -SHRA BKN050
     FM220300 VRB03KT 6SM -SHRA OVC040
     FM220700 01005KT 6SM -RA SCT025 OVC040
     FM221100 01007KT 4SM -RA BR OVC025=



000
FTUS41 KPHI 211100
TAFRDG
TAF
KRDG 211132Z 2112/2212 20003KT P6SM OVC080
     FM211500 33005KT P6SM VCSH BKN080
     FM211800 36005KT P6SM -SHRA BKN050
     FM212300 01003KT 6SM -SHRA OVC040
     FM220600 01007KT 6SM -RA SCT020 OVC035
     FM221000 01009KT 4SM -RA BR OVC020=



000
FTUS41 KPHI 211100
TAFACY
TAF
KACY 211132Z 2112/2212 21005KT P6SM FEW050 BKN150
     FM211700 24005KT P6SM SCT050 BKN100
     FM212200 32005KT P6SM -SHRA BKN050
     FM220300 VRB03KT 6SM -SHRA OVC040
     FM220700 03007KT 6SM -RA SCT025 OVC040
     FM221100 03010KT 4SM -RA BR OVC025=



000
FTUS41 KPHI 211100
TAFMIV
TAF
KMIV 211132Z 2112/2212 22003KT P6SM FEW050 BKN150
      TEMPO 2112/2113 6SM BR
     FM211700 27005KT P6SM SCT050 BKN100
     FM212200 33005KT P6SM -SHRA BKN050
     FM220300 VRB03KT 6SM -SHRA OVC040
     FM220700 01005KT 6SM -RA SCT025 OVC040
     FM221100 01007KT 4SM -RA BR OVC025=



000
FTUS41 KPHI 211100
TAFPHL
TAF
KPHL 211132Z 2112/2218 22003KT P6SM FEW050 BKN150
     FM211600 27006KT P6SM VCSH BKN100
     FM212100 32006KT P6SM -SHRA BKN050
     FM220200 01003KT P6SM VCSH OVC040
     FM220700 03008KT 6SM -RA SCT025 OVC040
     FM221100 03010KT 4SM -RA BR OVC025=



000
FTUS41 KPHI 211100
TAFPNE
TAF
KPNE 211132Z 2112/2212 20003KT P6SM FEW050 BKN150
     FM211600 26005KT P6SM SCT050 BKN100
     FM212100 33005KT P6SM -SHRA BKN050
     FM220200 36003KT P6SM VCSH OVC040
     FM220700 03008KT 6SM -RA SCT025 OVC040
     FM221100 03010KT 4SM -RA BR OVC025=



000
FTUS41 KPHI 211100
TAFTTN
TAF
KTTN 211132Z 2112/2212 VRB03KT P6SM BKN100
     FM211500 26005KT P6SM SCT050 BKN100
     FM212100 36005KT P6SM -SHRA BKN050
     FM220200 03003KT P6SM VCSH OVC040
     FM220700 03008KT 6SM -RA SCT025 OVC040
     FM221100 05010KT 4SM -RA BR OVC025=



000
FTUS41 KPHI 211100
TAFILG
TAF
KILG 211132Z 2112/2212 23006KT P6SM FEW050 BKN150
     FM211600 27006KT P6SM SCT050 BKN100
     FM212100 33006KT P6SM -SHRA BKN050
     FM220300 36004KT 6SM -SHRA OVC040
     FM220700 01008KT 6SM -RA SCT025 OVC040
     FM221100 01010KT 4SM -RA BR OVC025=



000
FTUS41 KPHI 211100
TAFACY
TAF
KACY 211132Z 2112/2212 21005KT P6SM FEW050 BKN150
     FM211700 24005KT P6SM SCT050 BKN100
     FM212200 32005KT P6SM -SHRA BKN050
     FM220300 VRB03KT 6SM -SHRA OVC040
     FM220700 03007KT 6SM -RA SCT025 OVC040
     FM221100 03010KT 4SM -RA BR OVC025=



000
FTUS41 KPHI 211000 AAA
TAFMIV
TAF AMD
KMIV 211059Z 2111/2206 VRB03KT 6SM BR BKN100
      TEMPO 2111/2114 3SM BR
     FM211600 28005KT P6SM SCT050 BKN100
     FM212200 32005KT P6SM -SHRA BKN050
     FM220300 VRB03KT 6SM -SHRA OVC040=



000
FTUS41 KPHI 211000 AAA
TAFMIV
TAF AMD
KMIV 211059Z 2111/2206 VRB03KT 6SM BR BKN100
      TEMPO 2111/2114 3SM BR
     FM211600 28005KT P6SM SCT050 BKN100
     FM212200 32005KT P6SM -SHRA BKN050
     FM220300 VRB03KT 6SM -SHRA OVC040=



000
FTUS41 KPHI 210800 AAA
TAFPHL
TAF AMD
KPHL 210850Z 2109/2212 20003KT P6SM VCSH SCT060 BKN100
     FM211300 26006KT P6SM SCT050 BKN150
     FM212100 31006KT P6SM -SHRA BKN050
     FM220200 34003KT P6SM VCSH OVC040
     FM220800 01008KT 6SM -RA SCT025 OVC040=



000
FTUS41 KPHI 210800 AAA
TAFABE
TAF AMD
KABE 210809Z 2108/2206 VRB03KT P6SM -SHRA OVC060
     FM211300 VRB03KT P6SM VCSH BKN080
     FM211900 33005KT P6SM -SHRA BKN050
     FM220000 01003KT 6SM -SHRA OVC040=



000
FTUS41 KPHI 210800 AAA
TAFRDG
TAF AMD
KRDG 210803Z 2108/2206 20005KT P6SM -SHRA OVC060
     FM211300 30005KT P6SM VCSH BKN080
     FM211900 33005KT P6SM -SHRA BKN050
     FM220000 36003KT 6SM -SHRA OVC040=



000
FTUS41 KPHI 210500
TAFPHL
TAF
KPHL 210522Z 2106/2212 23006KT P6SM VCSH BKN100
     FM211500 26006KT P6SM SCT050 BKN100
     FM212100 31006KT P6SM -SHRA BKN050
     FM220200 34003KT P6SM VCSH OVC040
     FM220800 01008KT 6SM -RA SCT025 OVC040=



000
FTUS41 KPHI 210500
TAFTTN
TAF
KTTN 210522Z 2106/2206 VRB03KT P6SM BKN100
     FM211500 26005KT P6SM SCT050 BKN100
     FM212100 35005KT P6SM -SHRA BKN050
     FM220200 02003KT P6SM VCSH OVC040=



000
FTUS41 KPHI 210500
TAFRDG
TAF
KRDG 210522Z 2106/2206 20005KT P6SM -SHRA OVC060
      TEMPO 2106/2108 3SM SHRA BR OVC035
     FM211300 30005KT P6SM VCSH BKN080
     FM211900 33005KT P6SM -SHRA BKN050
     FM220000 36003KT 6SM -SHRA OVC040=



000
FTUS41 KPHI 210500
TAFILG
TAF
KILG 210522Z 2106/2206 21004KT P6SM BKN090
     FM211500 25006KT P6SM SCT050 BKN100
     FM212100 32006KT P6SM -SHRA BKN050
     FM220300 35004KT 6SM -SHRA OVC040=



000
FTUS41 KPHI 210500
TAFMIV
TAF
KMIV 210522Z 2106/2206 VRB03KT P6SM BKN100
     FM211600 28005KT P6SM SCT050 BKN100
     FM212200 32005KT P6SM -SHRA BKN050
     FM220300 VRB03KT 6SM -SHRA OVC040=



000
FTUS41 KPHI 210500
TAFACY
TAF
KACY 210522Z 2106/2206 20005KT P6SM BKN100
     FM211600 24005KT P6SM SCT050 BKN100
     FM212200 32005KT P6SM -SHRA BKN050
     FM220300 36005KT 6SM -SHRA OVC040=



000
FTUS41 KPHI 210500
TAFABE
TAF
KABE 210522Z 2106/2206 VRB03KT P6SM -SHRA OVC060
      TEMPO 2106/2109 4SM -SHRA BR OVC040
     FM211300 VRB03KT P6SM VCSH BKN080
     FM211900 33005KT P6SM -SHRA BKN050
     FM220000 01003KT 6SM -SHRA OVC040=



000
FTUS41 KPHI 210500
TAFPNE
TAF
KPNE 210522Z 2106/2206 20003KT P6SM BKN100
     FM211500 26005KT P6SM SCT050 BKN100
     FM212100 32005KT P6SM -SHRA BKN050
     FM220200 35003KT P6SM VCSH OVC040=



000
FTUS41 KPHI 202300
TAFRDG
TAF
KRDG 202335Z 2100/2124 VRB03KT P6SM BKN100
     FM210700 00000KT P6SM SCT040 OVC080
      TEMPO 2109/2113 5SM BR
     FM211600 VRB04KT P6SM BKN040=



000
FTUS41 KPHI 202300
TAFPHL
TAF
KPHL 202335Z 2100/2206 18005KT P6SM BKN150
     FM210400 24003KT P6SM SCT040 OVC080
     FM211500 19006KT P6SM BKN040
     FM212100 32004KT P6SM SCT040 BKN100=



000
FTUS41 KPHI 202300
TAFTTN
TAF
KTTN 202335Z 2100/2124 VRB03KT P6SM OVC100
     FM210800 VRB03KT P6SM SCT040 OVC080
     FM211500 22005KT P6SM BKN040
     FM211900 00000KT P6SM OVC100=



000
FTUS41 KPHI 202300
TAFILG
TAF
KILG 202335Z 2100/2124 19005KT P6SM BKN150
     FM210400 VRB03KT P6SM SCT040 OVC080
     FM211500 20006KT P6SM BKN040
     FM212100 33004KT P6SM OVC100=



000
FTUS41 KPHI 202300
TAFACY
TAF
KACY 202335Z 2100/2124 20010KT P6SM SCT150 BKN250
     FM210100 22006KT P6SM BKN150
     FM210400 VRB03KT P6SM FEW040 OVC100
     FM211500 18006KT P6SM BKN040
     FM211800 22005KT P6SM BKN250=



000
FTUS41 KPHI 202300
TAFMIV
TAF
KMIV 202335Z 2100/2124 22003KT P6SM BKN150
     FM210400 00000KT P6SM FEW040 OVC100
     FM211600 18004KT P6SM BKN040
     FM212200 26003KT P6SM OVC100=



000
FTUS41 KPHI 202300
TAFABE
TAF
KABE 202335Z 2100/2124 VRB03KT P6SM OVC100
     FM210700 00000KT P6SM SCT040 OVC080
      TEMPO 2109/2113 6SM BR
     FM211600 VRB04KT P6SM BKN040=



000
FTUS41 KPHI 202300
TAFPNE
TAF
KPNE 202335Z 2100/2124 16004KT P6SM BKN150
     FM210600 24003KT P6SM SCT040 OVC080
     FM211500 17004KT P6SM BKN040
     FM212000 36003KT P6SM OVC100=



000
FTUS41 KPHI 202000 AAA
TAFPHL
TAF AMD
KPHL 202059Z 2021/2124 18010KT P6SM SCT150 BKN200
     FM210000 21005KT P6SM BKN150
     FM210400 24003KT P6SM SCT040 OVC080
     FM211500 19006KT P6SM BKN040
     FM212100 26004KT P6SM SCT040 BKN100=



000
FTUS41 KPHI 201700
TAFMIV
TAF
KMIV 201740Z 2018/2118 21008KT P6SM SCT150 BKN250
     FM210100 VRB03KT P6SM BKN150
     FM210400 00000KT P6SM FEW040 OVC100
     FM211600 18004KT P6SM BKN040=



000
FTUS41 KPHI 201700
TAFRDG
TAF
KRDG 201740Z 2018/2118 20008KT P6SM SCT150 BKN250
     FM202300 VRB03KT P6SM BKN100
     FM210700 00000KT P6SM SCT040 OVC080
      TEMPO 2110/2113 5SM BR
     FM211600 VRB04KT P6SM BKN040=



000
FTUS41 KPHI 201700
TAFTTN
TAF
KTTN 201740Z 2018/2118 22008KT P6SM SCT150 BKN250
     FM210200 VRB03KT P6SM OVC100
     FM210800 VRB03KT P6SM SCT040 OVC080
     FM211500 19005KT P6SM BKN040=



000
FTUS41 KPHI 201700
TAFABE
TAF
KABE 201740Z 2018/2118 21008KT P6SM SCT150 BKN250
     FM202300 VRB03KT P6SM OVC100
     FM210700 00000KT P6SM SCT040 OVC080
      TEMPO 2110/2113 6SM BR
     FM211600 VRB04KT P6SM BKN040=



000
FTUS41 KPHI 201700
TAFPHL
TAF
KPHL 201740Z 2018/2124 20010KT P6SM SCT150 BKN200
     FM210000 21005KT P6SM BKN150
     FM210400 24003KT P6SM SCT040 OVC080
     FM211500 19006KT P6SM BKN040
     FM212100 26004KT P6SM SCT040 BKN100=



000
FTUS41 KPHI 201700
TAFACY
TAF
KACY 201740Z 2018/2118 19010KT P6SM SCT150 BKN250
     FM210100 22006KT P6SM BKN150
     FM210400 VRB03KT P6SM FEW040 OVC100
     FM211500 18006KT P6SM BKN040=



000
FTUS41 KPHI 201700
TAFILG
TAF
KILG 201740Z 2018/2118 18010KT P6SM SCT150 BKN250
     FM210000 19005KT P6SM BKN150
     FM210400 VRB03KT P6SM SCT040 OVC080
     FM211500 20006KT P6SM BKN040=



000
FTUS41 KPHI 201700
TAFPNE
TAF
KPNE 201740Z 2018/2118 22008KT P6SM SCT150 BKN250
     FM210200 VRB03KT P6SM OVC100
     FM210800 24003KT P6SM SCT040 OVC080
     FM211500 17004KT P6SM BKN040=



000
FTUS41 KPHI 201400 AAA
TAFPHL
TAF AMD
KPHL 201446Z 2015/2118 20010KT P6SM SCT150 BKN200
     FM210000 21005KT P6SM BKN150
     FM210400 21005KT P6SM OVC100
     FM210800 24003KT P6SM SCT040 OVC080=



000
FTUS41 KPHI 201100
TAFMIV
TAF
KMIV 201120Z 2012/2112 21003KT P6SM BKN250
     FM201600 21008KT P6SM SCT150 BKN250
     FM210100 VRB03KT P6SM BKN150
     FM210400 00000KT P6SM OVC100=



000
FTUS41 KPHI 201100
TAFACY
TAF
KACY 201120Z 2012/2112 19006KT P6SM BKN250
     FM201600 19010KT P6SM SCT150 BKN250
     FM210100 22006KT P6SM BKN150
     FM210400 VRB03KT P6SM OVC100=



000
FTUS41 KPHI 201100
TAFPHL
TAF
KPHL 201120Z 2012/2118 19003KT P6SM BKN250
     FM201500 22010KT P6SM SCT150 BKN250
     FM210000 21005KT P6SM BKN150
     FM210400 21005KT P6SM OVC100
     FM210800 24003KT P6SM SCT040 OVC080=



000
FTUS41 KPHI 201100
TAFTTN
TAF
KTTN 201120Z 2012/2112 24003KT P6SM BKN250
     FM201500 22008KT P6SM SCT150 BKN250
     FM210000 19005KT P6SM BKN150
     FM210400 VRB03KT P6SM OVC100
     FM210800 VRB03KT P6SM SCT040 OVC080=



000
FTUS41 KPHI 201100
TAFILG
TAF
KILG 201120Z 2012/2112 18003KT P6SM BKN250
     FM201500 18009KT P6SM SCT150 BKN250
     FM210000 19005KT P6SM BKN150
     FM210400 VRB03KT P6SM OVC100
     FM210800 VRB03KT P6SM SCT040 OVC080=



000
FTUS41 KPHI 201100
TAFABE
TAF
KABE 201120Z 2012/2112 VRB03KT P6SM BKN250
     FM201500 21008KT P6SM SCT150 BKN250
     FM202300 19003KT P6SM BKN150
     FM210300 VRB03KT P6SM FEW040 OVC100
     FM210700 00000KT P6SM SCT040 OVC080=



000
FTUS41 KPHI 201100
TAFPNE
TAF
KPNE 201120Z 2012/2112 VRB03KT P6SM BKN250
     FM201500 22008KT P6SM SCT150 BKN250
     FM210000 19005KT P6SM BKN150
     FM210400 VRB03KT P6SM OVC100
     FM210800 24003KT P6SM SCT040 OVC080=



000
FTUS41 KPHI 201100
TAFRDG
TAF
KRDG 201120Z 2012/2112 VRB03KT P6SM BKN250
     FM201500 19008KT P6SM SCT150 BKN250
     FM202300 VRB03KT P6SM BKN150
     FM210300 VRB03KT P6SM FEW040 OVC100
     FM210700 00000KT P6SM SCT040 OVC080=



000
FTUS41 KPHI 200900 AAA
TAFPHL
TAF AMD
KPHL 200900Z 2009/2112 VRB03KT P6SM SCT250
     FM201200 25003KT P6SM BKN250
     FM201500 22010KT P6SM SCT150 BKN250
     FM210000 20005KT P6SM BKN100
     FM210400 21005KT P6SM OVC080=



000
FTUS41 KPHI 200500
TAFILG
TAF
KILG 200526Z 2006/2106 VRB03KT P6SM SCT250
     FM200800 20003KT P6SM BKN250
     FM201500 18008KT P6SM SCT150 BKN250
     FM210000 17005KT P6SM BKN100
     FM210400 16003KT P6SM OVC080=



000
FTUS41 KPHI 200500
TAFPNE
TAF
KPNE 200526Z 2006/2106 VRB03KT P6SM SCT250
     FM200800 23003KT P6SM BKN250
     FM201500 20008KT P6SM SCT150 BKN250
     FM210000 18005KT P6SM BKN100
     FM210400 VRB03KT P6SM OVC080=



000
FTUS41 KPHI 200500
TAFACY
TAF
KACY 200526Z 2006/2106 VRB03KT P6SM SCT250
     FM201000 18005KT P6SM BKN250
     FM201600 20010KT P6SM SCT150 BKN250
     FM210100 21005KT P6SM BKN100
     FM210400 VRB03KT P6SM OVC080=



000
FTUS41 KPHI 200500
TAFPHL
TAF
KPHL 200526Z 2006/2112 VRB03KT P6SM SCT250
     FM200800 25003KT P6SM BKN250
     FM201500 22010KT P6SM SCT150 BKN250
     FM210000 20005KT P6SM BKN100
     FM210400 21005KT P6SM OVC080=



000
FTUS41 KPHI 200500
TAFMIV
TAF
KMIV 200526Z 2006/2106 31005KT P6SM SCT250
     FM201000 VRB03KT P6SM BKN250
     FM201600 22008KT P6SM SCT150 BKN250
     FM210100 VRB03KT P6SM BKN100
     FM210400 00000KT P6SM OVC080=



000
FTUS41 KPHI 200500
TAFRDG
TAF
KRDG 200526Z 2006/2106 VRB03KT P6SM SCT250
     FM200800 VRB03KT P6SM BKN250
     FM201500 19008KT P6SM SCT150 BKN250
     FM202300 VRB03KT P6SM BKN100
     FM210300 VRB03KT P6SM OVC070=



000
FTUS41 KPHI 200500
TAFABE
TAF
KABE 200526Z 2006/2106 00000KT P6SM SCT250
     FM200800 VRB03KT P6SM BKN250
     FM201500 20008KT P6SM SCT150 BKN250
     FM202300 VRB03KT P6SM BKN100
     FM210300 VRB03KT P6SM OVC070=



000
FTUS41 KPHI 200500
TAFTTN
TAF
KTTN 200526Z 2006/2106 VRB03KT P6SM SCT250
     FM200900 VRB03KT P6SM BKN250
     FM201500 20008KT P6SM SCT150 BKN250
     FM210000 18005KT P6SM BKN100
     FM210400 VRB03KT P6SM OVC080=



000
FTUS41 KPHI 192300
TAFRDG
TAF
KRDG 192326Z 2000/2024 33005KT P6SM SCT250
     FM200300 00000KT P6SM BKN250
     FM201500 21008KT P6SM BKN150=



000
FTUS41 KPHI 192300
TAFPHL
TAF
KPHL 192326Z 2000/2106 31008KT P6SM SCT250
     FM200500 26003KT P6SM BKN250
     FM201500 22010KT P6SM BKN150
     FM210400 21005KT P6SM SCT040 OVC080=



000
FTUS41 KPHI 192300
TAFABE
TAF
KABE 192326Z 2000/2024 31005KT P6SM SCT250
     FM200300 00000KT P6SM BKN250
     FM201500 22008KT P6SM BKN150=



000
FTUS41 KPHI 192300
TAFMIV
TAF
KMIV 192326Z 2000/2024 31005KT P6SM SCT250
     FM200400 00000KT P6SM BKN250
     FM201500 22008KT P6SM BKN150=



000
FTUS41 KPHI 192300
TAFTTN
TAF
KTTN 192326Z 2000/2024 34003KT P6SM SCT250
     FM200400 00000KT P6SM BKN250
     FM201500 25008KT P6SM BKN150=



000
FTUS41 KPHI 192300
TAFPNE
TAF
KPNE 192326Z 2000/2024 32002KT P6SM SCT250
     FM200400 VRB02KT P6SM BKN250
     FM201500 22008KT P6SM BKN180=



000
FTUS41 KPHI 192300
TAFACY
TAF
KACY 192326Z 2000/2024 30007KT P6SM SCT250
     FM200500 VRB02KT P6SM BKN250
     FM201500 21010KT P6SM BKN150=



000
FTUS41 KPHI 192300
TAFILG
TAF
KILG 192326Z 2000/2024 30007KT P6SM SCT250
     FM200500 VRB02KT P6SM BKN250
     FM201500 21010KT P6SM BKN180=



000
FTUS41 KPHI 192300
TAFABE
TAF
KABE 192326Z 2000/2024 31005KT P6SM SCT250
     FM200300 00000KT P6SM BKN250
     FM201500 22008KT P6SM BKN150=



000
FTUS41 KPHI 192300
TAFRDG
TAF
KRDG 192326Z 2000/2024 33005KT P6SM SCT250
     FM200300 00000KT P6SM BKN250
     FM201500 21008KT P6SM BKN150=



000
FTUS41 KPHI 192300
TAFPHL
TAF
KPHL 192326Z 2000/2106 31008KT P6SM SCT250
     FM200500 26003KT P6SM BKN250
     FM201500 22010KT P6SM BKN150
     FM210400 21005KT P6SM SCT040 OVC080=



000
FTUS41 KPHI 192300
TAFMIV
TAF
KMIV 192326Z 2000/2024 31005KT P6SM SCT250
     FM200400 00000KT P6SM BKN250
     FM201500 22008KT P6SM BKN150=



000
FTUS41 KPHI 192300
TAFACY
TAF
KACY 192326Z 2000/2024 30007KT P6SM SCT250
     FM200500 VRB02KT P6SM BKN250
     FM201500 21010KT P6SM BKN150=



000
FTUS41 KPHI 192300
TAFPNE
TAF
KPNE 192326Z 2000/2024 32002KT P6SM SCT250
     FM200400 VRB02KT P6SM BKN250
     FM201500 22008KT P6SM BKN180=



000
FTUS41 KPHI 192300
TAFILG
TAF
KILG 192326Z 2000/2024 30007KT P6SM SCT250
     FM200500 VRB02KT P6SM BKN250
     FM201500 21010KT P6SM BKN180=



000
FTUS41 KPHI 192300
TAFTTN
TAF
KTTN 192326Z 2000/2024 34003KT P6SM SCT250
     FM200400 00000KT P6SM BKN250
     FM201500 25008KT P6SM BKN150=



000
FTUS41 KPHI 192000 AAA
TAFPHL
TAF AMD
KPHL 192059Z 1921/2024 32015G22KT P6SM FEW250
     FM192300 31010KT P6SM FEW250
     FM200500 27003KT P6SM BKN250
     FM201500 22010KT P6SM BKN180=



000
FTUS41 KPHI 191700
TAFRDG
TAF
KRDG 191732Z 1918/2018 32015G26KT P6SM FEW050
     FM192300 31008KT P6SM SKC
     FM200300 VRB02KT P6SM BKN250
     FM201500 21008KT P6SM BKN150=



000
FTUS41 KPHI 191700
TAFMIV
TAF
KMIV 191732Z 1918/2018 31014G24KT P6SM FEW050
     FM192300 30005KT P6SM SKC
     FM200400 00000KT P6SM BKN250
     FM201500 22007KT P6SM BKN150=



000
FTUS41 KPHI 191700
TAFABE
TAF
KABE 191732Z 1918/2018 32015G24KT P6SM FEW050
     FM192300 31008KT P6SM SKC
     FM200300 VRB02KT P6SM BKN250
     FM201500 22008KT P6SM BKN150=



000
FTUS41 KPHI 191700
TAFPHL
TAF
KPHL 191732Z 1918/2024 32019G25KT P6SM SKC
     FM192300 31010KT P6SM SKC
     FM200500 27003KT P6SM BKN250
     FM201500 22010KT P6SM BKN180=



000
FTUS41 KPHI 191700
TAFTTN
TAF
KTTN 191732Z 1918/2018 34014G24KT P6SM SKC
     FM192300 35008KT P6SM SKC
     FM200400 VRB02KT P6SM BKN250
     FM201500 25008KT P6SM BKN150=



000
FTUS41 KPHI 191700
TAFACY
TAF
KACY 191732Z 1918/2018 32017G26KT P6SM FEW050
     FM192300 30006KT P6SM SKC
     FM200500 VRB02KT P6SM BKN250
     FM201500 21010KT P6SM BKN150=



000
FTUS41 KPHI 191700
TAFILG
TAF
KILG 191732Z 1918/2018 32016G24KT P6SM SKC
     FM192300 32009KT P6SM SKC
     FM200500 27003KT P6SM BKN250
     FM201500 22010KT P6SM BKN180=



000
FTUS41 KPHI 191700
TAFPNE
TAF
KPNE 191732Z 1918/2018 32015G25KT P6SM SKC
     FM192300 32008KT P6SM SKC
     FM200400 VRB03KT P6SM BKN250=



000
FTUS41 KPHI 191400 AAA
TAFPHL
TAF AMD
KPHL 191443Z 1915/2018 32017G25KT P6SM SCT050
     FM192300 31010KT P6SM SKC
     FM200500 27003KT P6SM BKN250
     FM201300 22006KT P6SM BKN180=



000
FTUS41 KPHI 191100
TAFPHL
TAF
KPHL 191123Z 1912/2018 32017G25KT P6SM SCT050
      TEMPO 1912/1913 BKN040
     FM192300 31010KT P6SM SKC
     FM200500 27003KT P6SM BKN250
     FM201300 22006KT P6SM BKN180=



000
FTUS41 KPHI 191100
TAFTTN
TAF
KTTN 191123Z 1912/2012 34012G20KT P6SM SCT040
      TEMPO 1912/1914 BKN040
     FM191400 34014G24KT P6SM SCT050
     FM192300 35008KT P6SM SKC
     FM200400 VRB03KT P6SM BKN250=



000
FTUS41 KPHI 191100
TAFPNE
TAF
KPNE 191123Z 1912/2012 32015G23KT P6SM SCT050
      TEMPO 1912/1913 BKN040
     FM192300 32008KT P6SM SKC
     FM200400 VRB03KT P6SM BKN250=



000
FTUS41 KPHI 191100
TAFMIV
TAF
KMIV 191123Z 1912/2012 31010G19KT P6SM SCT040 BKN090
     FM191300 31012G22KT P6SM SCT050
     FM192300 30005KT P6SM SKC
     FM200400 VRB02KT P6SM BKN250=



000
FTUS41 KPHI 191100
TAFRDG
TAF
KRDG 191123Z 1912/2012 32012G22KT P6SM BKN040
     FM191400 32015G26KT P6SM SCT050
      TEMPO 1914/1916 BKN050
     FM192300 31008KT P6SM SKC
     FM200300 VRB03KT P6SM BKN250=



000
FTUS41 KPHI 191100
TAFABE
TAF
KABE 191123Z 1912/2012 31013G23KT P6SM BKN035
     FM191600 32015G24KT P6SM SCT050
     FM192300 31008KT P6SM SKC
     FM200300 VRB03KT P6SM BKN250=



000
FTUS41 KPHI 191100
TAFACY
TAF
KACY 191123Z 1912/2012 30010G20KT P6SM SCT040 BKN120
     FM191300 32017G26KT P6SM SCT050
     FM192300 30006KT P6SM SKC
     FM200500 VRB02KT P6SM BKN250=



000
FTUS41 KPHI 191100
TAFILG
TAF
KILG 191123Z 1912/2012 32016G24KT P6SM SCT050
      TEMPO 1912/1913 BKN040
     FM192300 32009KT P6SM SKC
     FM200500 27003KT P6SM BKN250=



000
FTUS41 KPHI 190900 AAA
TAFILG
TAF AMD
KILG 190951Z 1910/2006 32010G17KT P6SM SCT040 BKN090
     FM191200 32015G24KT P6SM SCT050
     FM192300 32009KT P6SM SKC
     FM200500 27003KT P6SM BKN250=



000
FTUS41 KPHI 190900 AAA
TAFILG
TAF AMD
KILG 190951Z 1910/2006 32010G17KT P6SM SCT040 BKN090
     FM191200 32015G24KT P6SM SCT050
     FM192300 32009KT P6SM SKC
     FM200500 27003KT P6SM BKN250=



000
FTUS41 KPHI 190900 AAA
TAFPNE
TAF AMD
KPNE 190950Z 1910/2006 31009G19KT P6SM SCT040 BKN080
     FM191200 32015G23KT P6SM SCT050
     FM192300 32007KT P6SM SKC
     FM200400 VRB03KT P6SM BKN250=



000
FTUS41 KPHI 190900 AAA
TAFPNE
TAF AMD
KPNE 190950Z 1910/2006 31009G19KT P6SM SCT040 BKN080
     FM191200 32015G23KT P6SM SCT050
     FM192300 32007KT P6SM SKC
     FM200400 VRB03KT P6SM BKN250=



000
FTUS41 KPHI 190900 AAA
TAFTTN
TAF AMD
KTTN 190950Z 1910/2006 33009G16KT P6SM SCT040 BKN070
     FM191200 34013G23KT P6SM SCT050
      TEMPO 1913/1917 BKN050
     FM192300 35008KT P6SM SKC
     FM200400 VRB03KT P6SM BKN250=



000
FTUS41 KPHI 190900 AAA
TAFTTN
TAF AMD
KTTN 190950Z 1910/2006 33009G16KT P6SM SCT040 BKN070
     FM191200 34013G23KT P6SM SCT050
      TEMPO 1913/1917 BKN050
     FM192300 35008KT P6SM SKC
     FM200400 VRB03KT P6SM BKN250=



000
FTUS41 KPHI 190900 AAA
TAFABE
TAF AMD
KABE 190949Z 1910/2006 31010G17KT P6SM SCT030 BKN070
      TEMPO 1910/1912 BKN030
     FM191200 31012G22KT P6SM BKN035
     FM191600 31014G24KT P6SM SCT050
     FM192300 31008KT P6SM SKC
     FM200300 VRB03KT P6SM BKN250=



000
FTUS41 KPHI 190900 AAA
TAFABE
TAF AMD
KABE 190949Z 1910/2006 31010G17KT P6SM SCT030 BKN070
      TEMPO 1910/1912 BKN030
     FM191200 31012G22KT P6SM BKN035
     FM191600 31014G24KT P6SM SCT050
     FM192300 31008KT P6SM SKC
     FM200300 VRB03KT P6SM BKN250=



000
FTUS41 KPHI 190900 AAA
TAFPHL
TAF AMD
KPHL 190948Z 1910/2012 31011G19KT P6SM SCT040 BKN080
     FM191200 31017G24KT P6SM SCT050
     FM192300 31010KT P6SM SKC
     FM200500 27004KT P6SM BKN250=



000
FTUS41 KPHI 190900 AAA
TAFPHL
TAF AMD
KPHL 190948Z 1910/2012 31011G19KT P6SM SCT040 BKN080
     FM191200 31017G24KT P6SM SCT050
     FM192300 31010KT P6SM SKC
     FM200500 27004KT P6SM BKN250=



000
FTUS41 KPHI 190900 CCA
TAFRDG
TAF COR
KRDG 190948Z 1910/2006 30010G18KT P6SM SCT040 BKN070
     FM191200 31014G24KT P6SM SCT050
      TEMPO 1914/1918 BKN050
     FM192300 31008KT P6SM SKC
     FM200300 VRB03KT P6SM BKN250=



000
FTUS41 KPHI 190900 CCA
TAFRDG
TAF COR
KRDG 190948Z 1910/2006 30010G18KT P6SM SCT040 BKN070
     FM191200 31014G24KT P6SM SCT050
      TEMPO 1914/1918 BKN050
     FM192300 31008KT P6SM SKC
     FM200300 VRB03KT P6SM BKN250=



000
FTUS41 KPHI 190900 AAA
TAFRDG
TAF AMD
KRDG 190947Z 1910/2006 30010KT P6SM SCT040 BKN070
     FM191200 31014G24KT P6SM SCT050
      TEMPO 1914/1918 BKN050
     FM192300 31008KT P6SM SKC
     FM200300 VRB03KT P6SM BKN250=



000
FTUS41 KPHI 190500
TAFTTN
TAF
KTTN 190520Z 1906/2006 33009KT P6SM SCT040 BKN070
     FM191200 34013G23KT P6SM SCT050
      TEMPO 1913/1917 BKN050
     FM192300 35008KT P6SM SKC
     FM200400 VRB03KT P6SM BKN250=



000
FTUS41 KPHI 190500
TAFABE
TAF
KABE 190520Z 1906/2006 30010KT P6SM SCT040 BKN080
     FM191200 31012G22KT P6SM BKN040
     FM191600 31014G24KT P6SM SCT050
     FM192300 31008KT P6SM SKC
     FM200300 VRB03KT P6SM BKN250=



000
FTUS41 KPHI 190500
TAFMIV
TAF
KMIV 190520Z 1906/2006 28008KT P6SM SCT040 BKN120
     FM191300 31012G22KT P6SM SCT050
     FM192300 30005KT P6SM SKC
     FM200400 VRB02KT P6SM BKN250=



000
FTUS41 KPHI 190500
TAFRDG
TAF
KRDG 190520Z 1906/2006 30010KT P6SM SCT040 BKN070
     FM191200 31014G24KT P6SM SCT050
      TEMPO 1914/1918 BKN050
     FM192300 31008KT P6SM SKC
     FM200300 VRB03KT P6SM BKN250=



000
FTUS41 KPHI 190500
TAFACY
TAF
KACY 190520Z 1906/2006 27009KT P6SM SCT040 BKN120
     FM191300 32017G26KT P6SM SCT050
     FM192300 30006KT P6SM SKC
     FM200500 VRB02KT P6SM BKN250=



000
FTUS41 KPHI 190500
TAFILG
TAF
KILG 190520Z 1906/2006 30009KT P6SM SCT040 BKN120
     FM191200 32015G24KT P6SM SCT050
     FM192300 32009KT P6SM SKC
     FM200500 27003KT P6SM BKN250=



000
FTUS41 KPHI 190500
TAFPHL
TAF
KPHL 190520Z 1906/2012 30011KT P6SM SCT040 BKN120
     FM191200 31017G24KT P6SM SCT050
     FM192300 31010KT P6SM SKC
     FM200500 27004KT P6SM BKN250=



000
FTUS41 KPHI 190500
TAFPNE
TAF
KPNE 190520Z 1906/2006 31009KT P6SM SCT040 BKN120
     FM191200 32015G23KT P6SM SCT050
     FM192300 32007KT P6SM SKC
     FM200400 VRB03KT P6SM BKN250=



    US Dept of Commerce
    National Oceanic and Atmospheric Administration
    National Weather Service
    1325 East West Highway
    Silver Spring, MD 20910
    Page Author: NWS Internet Services Team
Disclaimer
Information Quality
Credits
Glossary
Privacy Policy
Freedom of Information Act (FOIA)
About Us
Career Opportunities